Time;durP1;ratioP1;P1;durP2;ratioP2;P2;SDS_P1;SDS_P2;PMS_P1;PMS_P2;Temp;Humidity;BMP_temperature;BMP_pressure;BME280_temperature;BME280_humidity;BME280_pressure;Samples;Min_cycle;Max_cycle;Signal;HPM_P1;HPM_P2
2021/05/11 00:01:25;;;;;;;8.88;3.97;;;;;;;13.24;100.00;100807.31;3571113;40;20139;-60
2021/05/11 00:03:52;;;;;;;11.98;4.70;;;;;;;13.28;100.00;100820.38;3569554;40;20045;-61
2021/05/11 00:06:18;;;;;;;13.68;4.85;;;;;;;13.18;100.00;100814.19;3570269;40;20048;-61
2021/05/11 00:08:44;;;;;;;11.63;4.13;;;;;;;13.25;100.00;100815.28;3571827;40;20085;-63
2021/05/11 00:11:10;;;;;;;14.85;4.97;;;;;;;13.19;100.00;100812.31;3570031;40;20082;-60
2021/05/11 00:13:36;;;;;;;12.90;4.45;;;;;;;13.14;100.00;100813.63;3569996;40;20067;-61
2021/05/11 00:16:02;;;;;;;12.85;4.57;;;;;;;13.13;100.00;100811.09;3571600;40;20323;-63
2021/05/11 00:18:28;;;;;;;15.25;4.57;;;;;;;13.05;100.00;100809.16;3571334;40;20059;-63
2021/05/11 00:20:55;;;;;;;13.40;5.00;;;;;;;13.08;100.00;100806.16;3570802;40;20127;-62
2021/05/11 00:23:21;;;;;;;10.75;4.53;;;;;;;13.18;100.00;100805.25;3569410;40;20381;-61
2021/05/11 00:25:47;;;;;;;9.32;3.90;;;;;;;13.10;100.00;100800.59;3571093;40;20123;-61
2021/05/11 00:28:13;;;;;;;11.30;4.70;;;;;;;12.99;100.00;100803.53;3571106;40;20091;-61
2021/05/11 00:30:39;;;;;;;13.23;4.63;;;;;;;13.04;100.00;100802.03;3571530;40;20438;-62
2021/05/11 00:33:05;;;;;;;12.80;4.63;;;;;;;13.05;100.00;100792.94;3568905;40;20065;-61
2021/05/11 00:35:31;;;;;;;12.30;4.25;;;;;;;13.12;100.00;100804.00;3571144;40;20045;-61
2021/05/11 00:37:58;;;;;;;14.60;5.30;;;;;;;12.97;100.00;100798.28;3570636;40;20055;-60
2021/05/11 00:40:24;;;;;;;10.48;4.30;;;;;;;13.03;100.00;100800.38;3570531;40;20051;-60
2021/05/11 00:42:50;;;;;;;12.05;4.07;;;;;;;13.06;100.00;100801.88;3570960;40;20056;-61
2021/05/11 00:45:16;;;;;;;13.07;4.65;;;;;;;13.14;100.00;100808.22;3570715;40;20065;-60
2021/05/11 00:47:42;;;;;;;12.65;4.93;;;;;;;13.19;100.00;100815.03;3571806;40;20038;-60
2021/05/11 00:50:09;;;;;;;18.45;6.35;;;;;;;13.13;100.00;100817.34;3571289;40;20029;-61
2021/05/11 00:52:35;;;;;;;13.30;5.47;;;;;;;13.00;100.00;100816.88;3569787;40;20053;-62
2021/05/11 00:55:03;;;;;;;11.95;4.45;;;;;;;12.95;100.00;100817.31;3571338;40;20049;-62
2021/05/11 00:57:31;;;;;;;10.38;4.43;;;;;;;13.04;100.00;100818.25;3568139;40;20041;-59
2021/05/11 01:00:00;;;;;;;14.00;4.38;;;;;;;13.10;100.00;100814.09;3571377;40;20061;-61
2021/05/11 01:02:26;;;;;;;15.27;5.05;;;;;;;13.06;100.00;100815.41;3572106;40;21553;-59
2021/05/11 01:04:52;;;;;;;15.05;4.55;;;;;;;13.11;100.00;100818.50;3570584;40;20037;-61
2021/05/11 01:07:19;;;;;;;10.75;4.30;;;;;;;13.00;100.00;100821.44;3571666;40;20081;-60
2021/05/11 01:09:45;;;;;;;14.13;5.65;;;;;;;12.94;100.00;100823.75;3572660;40;20085;-61
2021/05/11 01:12:12;;;;;;;9.63;4.22;;;;;;;12.90;100.00;100816.09;3570928;40;20142;-60
2021/05/11 01:14:38;;;;;;;10.38;4.40;;;;;;;12.85;100.00;100811.13;3571918;40;20306;-59
2021/05/11 01:17:04;;;;;;;14.32;4.30;;;;;;;12.80;100.00;100816.16;3572815;40;20046;-60
2021/05/11 01:19:40;;;;;;;11.73;4.72;;;;;;;12.72;100.00;100808.81;3572206;40;20060;-61
2021/05/11 01:22:22;;;;;;;10.45;4.70;;;;;;;12.71;100.00;100806.28;3570237;40;20041;-59
2021/05/11 01:24:50;;;;;;;9.10;4.50;;;;;;;12.80;100.00;100810.75;3571941;40;20065;-60
2021/05/11 01:27:27;;;;;;;16.33;4.53;;;;;;;12.70;100.00;100799.16;3570753;40;20138;-59
2021/05/11 01:30:01;;;;;;;12.00;4.22;;;;;;;12.72;100.00;100802.56;3571784;40;20044;-60
2021/05/11 01:46:35;;;;;;;13.27;4.45;;;;;;;12.65;100.00;100778.03;3571702;40;20072;-61
2021/05/11 01:49:05;;;;;;;13.45;4.45;;;;;;;12.64;100.00;100778.19;3572666;40;20061;-61
2021/05/11 01:51:48;;;;;;;13.05;4.22;;;;;;;12.64;100.00;100772.78;3568603;40;20402;-60
2021/05/11 01:54:40;;;;;;;11.65;4.63;;;;;;;12.65;100.00;100774.44;3571202;40;20060;-59
2021/05/11 01:57:50;;;;;;;10.35;4.07;;;;;;;12.65;100.00;100775.31;3571904;40;20052;-60
2021/05/11 02:17:52;;;;;;;15.77;4.97;;;;;;;12.57;100.00;100772.50;3571352;40;20408;-62
2021/05/11 02:22:40;;;;;;;22.25;5.78;;;;;;;12.48;100.00;100752.66;3569706;40;20063;-61
2021/05/11 02:25:08;;;;;;;16.40;5.95;;;;;;;12.46;100.00;100760.09;3571679;40;20403;-60
2021/05/11 02:27:36;;;;;;;12.05;5.20;;;;;;;12.45;100.00;100752.97;3572272;40;20037;-61
2021/05/11 02:30:02;;;;;;;12.63;5.47;;;;;;;12.43;100.00;100746.91;3571859;40;20049;-60
2021/05/11 02:32:28;;;;;;;15.88;5.63;;;;;;;12.45;100.00;100750.28;3571521;40;20313;-60
2021/05/11 02:34:54;;;;;;;14.63;5.70;;;;;;;12.43;100.00;100765.78;3570503;40;20056;-59
2021/05/11 02:37:21;;;;;;;13.18;5.55;;;;;;;12.40;100.00;100760.69;3572272;40;20419;-59
2021/05/11 02:39:47;;;;;;;12.10;5.32;;;;;;;12.38;100.00;100757.28;3571636;40;20065;-60
2021/05/11 02:42:13;;;;;;;13.25;5.75;;;;;;;12.41;100.00;100755.16;3571336;40;20049;-63
2021/05/11 02:44:40;;;;;;;17.60;6.07;;;;;;;12.48;100.00;100762.63;3569160;40;20053;-61
2021/05/11 02:47:07;;;;;;;16.75;6.78;;;;;;;12.44;100.00;100764.81;3571811;40;20051;-60
2021/05/11 02:49:33;;;;;;;14.57;6.07;;;;;;;12.38;100.00;100768.06;3572325;40;20045;-61
2021/05/11 02:51:59;;;;;;;17.73;6.25;;;;;;;12.40;100.00;100769.63;3571704;40;20056;-62
2021/05/11 02:54:25;;;;;;;13.18;5.78;;;;;;;12.41;100.00;100773.16;3570537;40;20055;-60
2021/05/11 02:56:51;;;;;;;16.15;6.43;;;;;;;12.54;100.00;100770.97;3571004;40;20065;-61
2021/05/11 02:59:17;;;;;;;13.75;6.38;;;;;;;12.45;100.00;100771.88;3571715;40;20064;-61
2021/05/11 03:01:44;;;;;;;14.88;6.45;;;;;;;12.42;100.00;100774.88;3570752;40;20041;-62
2021/05/11 03:04:10;;;;;;;15.18;6.53;;;;;;;12.42;100.00;100766.78;3570286;40;20046;-60
2021/05/11 03:06:36;;;;;;;14.20;6.05;;;;;;;12.51;100.00;100762.31;3571266;40;20086;-59
2021/05/11 03:09:02;;;;;;;14.38;6.22;;;;;;;12.52;100.00;100772.97;3570768;40;20310;-60
2021/05/11 03:11:28;;;;;;;19.05;6.35;;;;;;;12.40;100.00;100776.88;3570639;40;20319;-60
2021/05/11 03:13:54;;;;;;;11.52;5.75;;;;;;;12.43;100.00;100777.44;3570594;40;20099;-61
2021/05/11 03:16:20;;;;;;;15.63;7.03;;;;;;;12.39;100.00;100775.19;3571167;40;20050;-61
2021/05/11 03:18:47;;;;;;;14.80;6.10;;;;;;;12.40;100.00;100776.88;3571371;40;20056;-63
2021/05/11 03:21:12;;;;;;;15.95;7.00;;;;;;;12.27;100.00;100775.38;3568337;40;20049;-64
2021/05/11 03:23:38;;;;;;;13.32;6.65;;;;;;;12.32;100.00;100772.22;3570538;40;20044;-60
2021/05/11 03:26:04;;;;;;;18.38;7.05;;;;;;;12.39;100.00;100776.03;3570619;40;20439;-62
2021/05/11 03:28:30;;;;;;;15.25;7.13;;;;;;;12.39;100.00;100777.88;3570992;40;20037;-61
2021/05/11 03:33:30;;;;;;;15.20;6.85;;;;;;;12.30;100.00;100770.69;3600978;22;20145;-61
2021/05/11 03:35:57;;;;;;;20.63;7.45;;;;;;;12.27;100.00;100771.84;3582726;40;20057;-64
2021/05/11 03:38:24;;;;;;;13.23;6.75;;;;;;;12.24;100.00;100767.56;3581345;40;20060;-60
2021/05/11 03:40:51;;;;;;;15.07;6.53;;;;;;;12.34;100.00;100767.53;3581065;40;20059;-60
2021/05/11 03:43:20;;;;;;;16.92;7.13;;;;;;;12.35;100.00;100757.59;3580277;40;20051;-60
2021/05/11 03:45:51;;;;;;;13.65;6.72;;;;;;;12.38;100.00;100760.84;3581373;40;20497;-61
2021/05/11 03:48:17;;;;;;;13.15;7.00;;;;;;;12.45;100.00;100758.38;3582188;40;20052;-62
2021/05/11 03:50:43;;;;;;;16.00;6.75;;;;;;;12.37;100.00;100761.00;3581049;40;20048;-61
2021/05/11 03:53:10;;;;;;;15.10;7.32;;;;;;;12.34;100.00;100747.81;3579382;40;20071;-61
2021/05/11 03:55:36;;;;;;;15.23;6.85;;;;;;;12.36;100.00;100762.00;3581208;40;20053;-60
2021/05/11 03:58:02;;;;;;;16.15;7.63;;;;;;;12.20;100.00;100762.63;3581340;40;20037;-63
2021/05/11 04:00:27;;;;;;;18.33;7.40;;;;;;;12.17;100.00;100752.97;3577826;40;20391;-61
2021/05/11 04:02:53;;;;;;;13.02;6.80;;;;;;;12.23;100.00;100752.41;3576737;40;20060;-60
2021/05/11 04:05:20;;;;;;;15.52;7.85;;;;;;;12.34;100.00;100750.50;3579682;40;20388;-61
2021/05/11 04:07:48;;;;;;;13.85;6.93;;;;;;;12.34;100.00;100755.91;3579038;40;20158;-61
2021/05/11 04:10:19;;;;;;;16.63;8.05;;;;;;;12.38;100.00;100762.69;3579329;40;20048;-62
2021/05/11 04:18:13;;;;;;;17.05;7.80;;;;;;;12.27;100.00;100775.38;3579405;40;20055;-62
2021/05/11 04:20:39;;;;;;;12.90;7.47;;;;;;;12.31;100.00;100788.56;3581012;40;20056;-60
2021/05/11 04:23:05;;;;;;;15.15;7.13;;;;;;;12.14;100.00;100788.34;3577806;40;20427;-63
2021/05/11 04:25:32;;;;;;;16.70;7.90;;;;;;;12.00;100.00;100789.69;3580034;40;20346;-61
2021/05/11 04:27:58;;;;;;;19.80;8.70;;;;;;;12.07;100.00;100787.25;3579940;40;20055;-60
2021/05/11 04:30:25;;;;;;;14.18;7.35;;;;;;;12.19;100.00;100786.06;3577980;40;20428;-60
2021/05/11 04:32:50;;;;;;;16.08;8.05;;;;;;;12.26;100.00;100784.47;3576886;40;20039;-62
2021/05/11 04:35:16;;;;;;;13.95;7.43;;;;;;;12.37;100.00;100788.81;3579787;40;20421;-60
2021/05/11 04:37:43;;;;;;;15.60;7.95;;;;;;;12.29;100.00;100779.78;3580381;40;20121;-62
2021/05/11 04:42:42;;;;;;;14.18;7.88;;;;;;;12.37;100.00;100779.91;3597675;23;20044;-61
2021/05/11 04:45:10;;;;;;;13.50;8.13;;;;;;;12.43;100.00;100777.44;3569942;40;20072;-61
2021/05/11 04:47:46;;;;;;;15.98;8.15;;;;;;;12.39;100.00;100781.41;3571185;40;20045;-63
2021/05/11 04:50:15;;;;;;;17.55;8.30;;;;;;;12.40;100.00;100782.28;3570829;40;20293;-61
2021/05/11 04:52:42;;;;;;;16.50;8.53;;;;;;;12.41;100.00;100781.28;3570828;40;20056;-60
2021/05/11 04:55:09;;;;;;;13.80;8.10;;;;;;;12.44;100.00;100778.28;3569749;40;20053;-62
2021/05/11 04:57:35;;;;;;;19.15;8.07;;;;;;;12.49;100.00;100775.97;3571089;40;20055;-60
2021/05/11 05:00:04;;;;;;;15.82;8.40;;;;;;;12.56;100.00;100782.47;3569236;40;20090;-60
2021/05/11 05:02:31;;;;;;;15.32;8.65;;;;;;;12.61;100.00;100787.41;3570925;40;20049;-60
2021/05/11 05:04:57;;;;;;;14.30;7.72;;;;;;;12.48;100.00;100785.06;3570515;40;20049;-59
2021/05/11 05:07:23;;;;;;;12.38;7.70;;;;;;;12.53;100.00;100792.72;3570130;40;20388;-59
2021/05/11 05:09:49;;;;;;;23.25;9.48;;;;;;;12.54;100.00;100800.66;3570266;40;20061;-60
2021/05/11 05:12:14;;;;;;;16.88;8.63;;;;;;;12.46;100.00;100811.38;3569885;40;20130;-60
2021/05/11 05:14:40;;;;;;;12.02;9.35;;;;;;;12.40;100.00;100807.41;3568474;40;20037;-62
2021/05/11 05:17:07;;;;;;;15.05;8.80;;;;;;;12.40;100.00;100804.72;3570833;40;20041;-60
2021/05/11 05:19:34;;;;;;;15.98;8.40;;;;;;;12.54;100.00;100797.97;3571314;40;20058;-62
2021/05/11 05:22:00;;;;;;;17.75;8.55;;;;;;;12.66;100.00;100797.75;3571078;40;20138;-63
2021/05/11 05:24:30;;;;;;;12.07;8.35;;;;;;;12.79;100.00;100795.53;3570443;40;20044;-61
2021/05/11 05:27:00;;;;;;;;;;;;;;;12.79;100.00;100788.31;3571962;40;20041;-60
2021/05/11 05:29:26;;;;;;;13.73;8.43;;;;;;;12.81;100.00;100790.84;3569280;40;19948;-61
2021/05/11 05:31:52;;;;;;;16.73;8.45;;;;;;;12.87;100.00;100794.81;3569696;40;20077;-60
2021/05/11 05:34:19;;;;;;;19.73;9.70;;;;;;;12.76;100.00;100783.22;3568574;40;20406;-62
2021/05/11 05:36:45;;;;;;;14.55;9.07;;;;;;;12.87;100.00;100784.00;3565921;40;20042;-61
2021/05/11 05:39:11;;;;;;;16.80;10.43;;;;;;;12.93;100.00;100791.50;3567370;40;20154;-62
2021/05/11 05:41:37;;;;;;;17.30;10.27;;;;;;;13.00;100.00;100781.78;3569343;40;20070;-61
2021/05/11 05:44:03;;;;;;;17.80;9.05;;;;;;;13.01;100.00;100786.16;3570321;40;20068;-60
2021/05/11 05:46:29;;;;;;;17.40;9.98;;;;;;;13.01;100.00;100790.72;3567850;40;20114;-60
2021/05/11 05:48:55;;;;;;;17.83;10.30;;;;;;;13.04;100.00;100795.81;3571989;40;20073;-60
2021/05/11 05:51:24;;;;;;;15.43;10.32;;;;;;;13.06;100.00;100802.75;3568876;40;20444;-60
2021/05/11 05:53:50;;;;;;;15.75;9.48;;;;;;;13.15;100.00;100803.69;3571853;40;20071;-60
2021/05/11 05:56:19;;;;;;;17.83;9.48;;;;;;;13.31;100.00;100795.72;3571838;40;20041;-59
2021/05/11 05:58:44;;;;;;;18.70;10.35;;;;;;;13.35;100.00;100790.03;3571863;40;20042;-60
2021/05/11 06:01:10;;;;;;;19.15;8.88;;;;;;;13.38;100.00;100792.44;3570756;40;20045;-60
2021/05/11 06:03:38;;;;;;;14.50;9.80;;;;;;;13.49;100.00;100789.47;3570772;40;20045;-60
2021/05/11 06:06:06;;;;;;;15.60;9.45;;;;;;;13.56;100.00;100795.97;3570888;40;20033;-59
2021/05/11 06:08:35;;;;;;;19.30;11.43;;;;;;;13.63;100.00;100791.63;3573549;40;20037;-60
2021/05/11 06:11:07;;;;;;;17.43;11.10;;;;;;;13.74;100.00;100795.09;3573064;40;20119;-61
2021/05/11 06:13:38;;;;;;;17.33;10.25;;;;;;;13.83;100.00;100802.25;3572558;40;20061;-60
2021/05/11 06:18:48;;;;;;;18.67;11.02;;;;;;;13.74;100.00;100800.50;3572324;40;20221;-62
2021/05/11 06:21:14;;;;;;;17.73;10.65;;;;;;;13.81;100.00;100802.41;3571765;40;20151;-60
2021/05/11 06:23:41;;;;;;;16.60;9.85;;;;;;;13.81;100.00;100801.56;3571910;40;20179;-62
2021/05/11 06:26:09;;;;;;;20.02;11.73;;;;;;;13.83;100.00;100802.25;3572231;40;20103;-62
2021/05/11 06:28:38;;;;;;;16.23;10.40;;;;;;;13.84;100.00;100798.53;3571195;40;20053;-63
2021/05/11 06:31:04;;;;;;;;;;;;;;;13.88;100.00;100799.88;3572573;40;20079;-61
2021/05/11 06:33:30;;;;;;;19.40;11.32;;;;;;;13.82;100.00;100796.00;3571197;40;19937;-60
2021/05/11 06:35:56;;;;;;;20.95;11.60;;;;;;;14.02;100.00;100799.31;3572402;40;20042;-59
2021/05/11 06:38:22;;;;;;;17.80;11.10;;;;;;;14.46;100.00;100802.94;3571549;40;20058;-60
2021/05/11 06:40:49;;;;;;;19.75;11.70;;;;;;;14.68;100.00;100801.50;3572344;40;20134;-62
2021/05/11 06:43:17;;;;;;;14.60;10.95;;;;;;;14.79;100.00;100803.06;3571212;40;20072;-60
2021/05/11 06:48:29;;;;;;;13.25;9.52;;;;;;;14.85;100.00;100802.38;3570792;40;20426;-59
2021/05/11 06:53:40;;;;;;;13.93;10.80;;;;;;;14.86;100.00;100799.50;3572250;40;20051;-62
2021/05/11 06:56:09;;;;;;;16.63;10.65;;;;;;;15.15;100.00;100797.34;3572494;40;20064;-60
2021/05/11 06:58:36;;;;;;;14.30;10.52;;;;;;;15.28;100.00;100781.44;3571406;40;20059;-60
2021/05/11 07:01:02;;;;;;;15.02;9.00;;;;;;;15.64;100.00;100786.53;3571772;40;20049;-61
2021/05/11 07:03:28;;;;;;;12.80;9.85;;;;;;;15.95;100.00;100783.09;3570552;40;20078;-60
2021/05/11 07:05:54;;;;;;;13.05;9.40;;;;;;;15.99;100.00;100784.47;3571347;40;20125;-60
2021/05/11 07:08:26;;;;;;;14.43;9.55;;;;;;;16.28;100.00;100777.56;3572368;40;20371;-62
2021/05/11 07:10:54;;;;;;;11.05;8.15;;;;;;;16.89;100.00;100768.81;3572544;40;20056;-61
2021/05/11 07:13:20;;;;;;;14.48;8.55;;;;;;;17.24;100.00;100777.38;3571300;40;20049;-61
2021/05/11 07:15:47;;;;;;;13.55;8.15;;;;;;;17.04;100.00;100777.88;3572879;40;20072;-61
2021/05/11 07:18:15;;;;;;;11.88;7.57;;;;;;;17.45;100.00;100779.44;3570808;40;20045;-62
2021/05/11 07:20:43;;;;;;;10.57;7.90;;;;;;;17.75;100.00;100774.88;3570605;40;20060;-61
2021/05/11 07:23:09;;;;;;;12.50;7.95;;;;;;;17.68;100.00;100771.22;3570152;40;20109;-61
2021/05/11 07:25:41;;;;;;;9.60;7.22;;;;;;;17.93;100.00;100771.00;3571277;40;20378;-61
2021/05/11 07:30:52;;;;;;;9.70;7.60;;;;;;;17.41;100.00;100778.94;3570668;40;20135;-60
2021/05/11 07:33:20;;;;;;;10.05;6.47;;;;;;;18.03;100.00;100777.03;3571797;40;20137;-61
2021/05/11 07:35:46;;;;;;;9.23;6.97;;;;;;;18.22;100.00;100770.16;3572165;40;20317;-63
2021/05/11 07:38:12;;;;;;;14.07;7.82;;;;;;;17.74;100.00;100765.06;3571840;40;20061;-61
2021/05/11 07:40:37;;;;;;;12.85;6.28;;;;;;;18.17;100.00;100768.00;3571842;40;20037;-61
2021/05/11 07:43:03;;;;;;;10.32;7.22;;;;;;;18.34;100.00;100757.78;3571962;40;20050;-61
2021/05/11 07:45:35;;;;;;;8.98;7.07;;;;;;;18.70;100.00;100745.19;3572372;40;20056;-61
2021/05/11 07:48:16;;;;;;;11.05;7.00;;;;;;;18.54;100.00;100740.81;3572564;40;20324;-64
2021/05/11 07:51:12;;;;;;;9.98;6.88;;;;;;;18.55;100.00;100753.38;3571912;40;20086;-62
2021/05/11 08:01:55;;;;;;;13.98;7.35;;;;;;;18.07;100.00;100762.00;3571960;40;20080;-61
2021/05/11 08:02:38;;;;;;;10.43;6.25;;;;;;;19.03;100.00;100755.63;3571812;40;20089;-63
2021/05/11 08:05:13;;;;;;;11.05;6.20;;;;;;;18.82;100.00;100760.00;3571322;40;20060;-64
2021/05/11 08:10:33;;;;;;;15.20;6.32;;;;;;;18.75;100.00;100756.34;3572498;40;20163;-61
2021/05/11 08:15:48;;;;;;;8.52;6.43;;;;;;;18.53;100.00;100744.56;3572499;40;20387;-64
2021/05/11 08:18:20;;;;;;;10.23;7.32;;;;;;;18.92;100.00;100746.09;3571522;40;20061;-64
2021/05/11 08:29:19;;;;;;;10.07;7.38;;;;;;;18.14;100.00;100730.25;3571994;40;20417;-61
2021/05/11 08:31:45;;;;;;;12.25;7.57;;;;;;;18.32;100.00;100734.47;3572484;40;20049;-61
2021/05/11 08:34:11;;;;;;;11.70;7.50;;;;;;;17.92;100.00;100731.19;3571954;40;20041;-61
2021/05/11 08:39:04;;;;;;;13.07;6.97;;;;;;;18.58;100.00;100741.25;3600761;23;20037;-63
2021/05/11 08:41:30;;;;;;;11.88;7.03;;;;;;;18.62;100.00;100742.56;3569421;40;20081;-61
2021/05/11 08:43:56;;;;;;;10.48;6.78;;;;;;;18.62;100.00;100748.03;3569817;40;20380;-62
2021/05/11 08:46:22;;;;;;;9.18;6.68;;;;;;;18.49;100.00;100749.56;3569751;40;20045;-60
2021/05/11 08:48:49;;;;;;;11.15;6.18;;;;;;;18.67;100.00;100751.88;3570693;40;20045;-60
2021/05/11 08:51:19;;;;;;;9.02;6.25;;;;;;;18.52;100.00;100748.31;3569201;40;20390;-61
2021/05/11 09:04:57;;;;;;;8.55;5.18;;;;;;;18.37;100.00;100761.97;3569075;40;20180;-64
2021/05/11 09:23:55;;;;;;;;;;;;;;;18.23;100.00;100780.03;3590146;23;20063;-61
2021/05/11 09:26:34;;;;;;;9.93;4.78;;;;;;;18.27;100.00;100777.75;3581194;40;20026;-63
2021/05/11 09:29:07;;;;;;;10.10;4.07;;;;;;;18.43;100.00;100787.63;3581420;40;20081;-63
2021/05/11 09:31:49;;;;;;;11.82;4.88;;;;;;;18.39;100.00;100784.44;3580888;40;20048;-65
2021/05/11 09:34:25;;;;;;;6.97;4.10;;;;;;;18.19;100.00;100793.16;3581532;40;20069;-62
2021/05/11 09:45:38;;;;;;;11.05;4.60;;;;;;;18.24;100.00;100778.16;3581440;40;20059;-61
2021/05/11 09:56:46;;;;;;;13.30;4.47;;;;;;;18.42;100.00;100792.25;3582562;40;20056;-63
2021/05/11 10:11:35;;;;;;;7.93;4.57;;;;;;;17.93;100.00;100788.22;3581051;40;20134;-61
2021/05/11 10:37:44;;;;;;;7.55;5.07;;;;;;;19.15;100.00;100740.41;3558876;40;20052;-63
2021/05/11 10:48:36;;;;;;;9.45;5.05;;;;;;;18.69;100.00;100729.88;3580659;40;20063;-61
2021/05/11 10:51:04;;;;;;;9.27;5.03;;;;;;;19.21;100.00;100719.69;3581811;40;20078;-61
2021/05/11 10:53:51;;;;;;;9.02;4.55;;;;;;;19.03;100.00;100722.91;3580177;40;20040;-61
2021/05/11 10:56:57;;;;;;;8.85;4.85;;;;;;;19.37;100.00;100713.13;3580744;40;20052;-61
2021/05/11 11:02:36;;;;;;;7.97;4.40;;;;;;;19.25;100.00;100710.91;3580999;40;20141;-61
2021/05/11 11:05:04;;;;;;;10.48;4.07;;;;;;;19.48;100.00;100700.78;3582048;40;20045;-61
2021/05/11 11:07:32;;;;;;;11.40;4.45;;;;;;;19.75;100.00;100704.56;3581515;40;20092;-61
2021/05/11 11:10:00;;;;;;;8.02;4.70;;;;;;;19.19;100.00;100699.97;3580927;40;20346;-60
2021/05/11 11:12:37;;;;;;;9.20;5.15;;;;;;;19.07;100.00;100703.22;3580062;40;20068;-61
2021/05/11 11:15:09;;;;;;;6.70;4.32;;;;;;;19.13;100.00;100695.31;3579526;40;20056;-64
2021/05/11 11:17:40;;;;;;;8.50;4.15;;;;;;;18.99;100.00;100694.31;3581816;40;20059;-63
2021/05/11 11:20:11;;;;;;;7.63;4.55;;;;;;;18.76;100.00;100698.06;3580244;40;20041;-63
2021/05/11 11:25:33;;;;;;;6.97;4.40;;;;;;;17.94;100.00;100704.63;3527018;40;20283;-60
2021/05/11 11:27:59;;;;;;;8.60;4.63;;;;;;;18.13;100.00;100708.66;3567289;40;20125;-61
2021/05/11 11:30:25;;;;;;;7.03;4.40;;;;;;;17.97;100.00;100696.91;3579616;40;20060;-61
2021/05/11 11:32:51;;;;;;;10.05;4.30;;;;;;;17.81;100.00;100695.19;3579449;40;20060;-61
2021/05/11 11:35:19;;;;;;;10.73;4.75;;;;;;;17.53;100.00;100695.00;3579370;40;21564;-61
2021/05/11 11:37:46;;;;;;;6.85;4.47;;;;;;;17.57;100.00;100696.31;3579895;40;20044;-62
2021/05/11 11:40:17;;;;;;;11.02;5.25;;;;;;;17.46;100.00;100702.22;3580533;40;20056;-61
2021/05/11 11:42:46;;;;;;;8.93;4.45;;;;;;;17.14;100.00;100705.06;3582143;40;20053;-61
2021/05/11 11:45:25;;;;;;;9.45;5.28;;;;;;;16.84;100.00;100711.38;3581879;40;20035;-61
2021/05/11 11:47:55;;;;;;;16.13;8.35;;;;;;;16.36;100.00;100731.38;3582356;40;20055;-61
2021/05/11 11:50:21;;;;;;;13.88;8.43;;;;;;;15.98;100.00;100733.91;3581354;40;20045;-61
2021/05/11 11:52:57;;;;;;;15.13;8.20;;;;;;;15.77;100.00;100721.72;3581159;40;20071;-62
2021/05/11 11:58:22;;;;;;;12.43;7.50;;;;;;;14.96;100.00;100731.63;3643237;22;20119;-63
2021/05/11 12:00:50;;;;;;;7.13;4.22;;;;;;;14.84;100.00;100713.97;3626832;23;20045;-63
2021/05/11 12:03:21;;;;;;;9.32;5.32;;;;;;;14.81;100.00;100728.72;3547175;40;20374;-65
2021/05/11 12:05:51;;;;;;;7.30;3.60;;;;;;;14.58;100.00;100733.91;3549263;40;20368;-66
2021/05/11 12:08:21;;;;;;;;;;;;;;;14.34;100.00;100746.34;3548642;40;20586;-62
2021/05/11 12:10:49;;;;;;;7.00;3.40;;;;;;;14.30;100.00;100734.16;3547313;40;19965;-62
2021/05/11 12:13:18;;;;;;;6.35;3.17;;;;;;;14.36;100.00;100741.59;3548923;40;20056;-61
2021/05/11 12:15:45;;;;;;;;;;;;;;;14.48;100.00;100738.59;3549488;40;20056;-61
2021/05/11 12:18:15;;;;;;;8.07;4.97;;;;;;;14.66;100.00;100733.09;3549058;40;19949;-61
2021/05/11 12:20:41;;;;;;;14.13;7.70;;;;;;;14.82;100.00;100735.81;3549574;40;20128;-62
2021/05/11 12:23:12;;;;;;;13.65;7.30;;;;;;;14.85;100.00;100737.34;3548068;40;20049;-60
2021/05/11 12:25:38;;;;;;;12.27;7.82;;;;;;;14.96;100.00;100739.75;3548862;40;20041;-63
2021/05/11 12:28:05;;;;;;;12.02;7.68;;;;;;;14.98;100.00;100750.41;3547833;40;20042;-64
2021/05/11 12:30:38;;;;;;;18.15;9.68;;;;;;;15.11;100.00;100758.91;3548930;40;20054;-63
2021/05/11 12:33:07;;;;;;;15.38;10.48;;;;;;;15.04;100.00;100757.88;3546916;40;20053;-65
2021/05/11 12:35:33;;;;;;;16.85;10.35;;;;;;;14.81;100.00;100763.09;3546767;40;20053;-60
2021/05/11 12:38:02;;;;;;;13.93;9.82;;;;;;;14.75;100.00;100758.34;3548028;40;20053;-62
2021/05/11 12:40:45;;;;;;;14.43;8.88;;;;;;;14.79;100.00;100757.00;3550030;40;20413;-63
2021/05/11 12:43:11;;;;;;;11.43;8.10;;;;;;;14.68;100.00;100759.00;3550185;40;20044;-62
2021/05/11 12:45:50;;;;;;;15.77;8.43;;;;;;;14.75;100.00;100761.88;3550599;40;20298;-62
2021/05/11 12:48:17;;;;;;;11.38;7.15;;;;;;;14.76;100.00;100760.88;3549977;40;20054;-62
2021/05/11 12:50:43;;;;;;;10.25;7.60;;;;;;;14.69;100.00;100774.25;3550584;40;20076;-62
2021/05/11 12:53:34;;;;;;;14.07;8.57;;;;;;;14.45;100.00;100780.38;3551265;40;20053;-62
2021/05/11 12:56:16;;;;;;;14.73;8.52;;;;;;;14.60;100.00;100774.34;3552035;40;20054;-64
2021/05/11 12:58:57;;;;;;;14.05;9.55;;;;;;;14.32;100.00;100775.41;3549962;40;20047;-62
2021/05/11 13:01:32;;;;;;;18.85;9.35;;;;;;;14.36;100.00;100786.78;3553435;40;20427;-64
2021/05/11 13:04:54;;;;;;;16.65;10.43;;;;;;;14.18;100.00;100793.13;3593152;22;20356;-63
2021/05/11 13:21:23;;;;;;;16.73;10.48;;;;;;;13.91;100.00;100804.97;3539339;40;20053;-65
2021/05/11 13:26:36;;;;;;;17.17;10.43;;;;;;;13.89;100.00;100814.28;3540568;40;20051;-64
2021/05/11 13:29:05;;;;;;;23.90;12.60;;;;;;;13.79;100.00;100814.38;3540257;40;20498;-64
2021/05/11 13:31:35;;;;;;;22.10;13.63;;;;;;;13.95;100.00;100822.59;3542174;40;20507;-62
2021/05/11 13:34:09;;;;;;;;;;;;;;;14.12;100.00;100828.09;3542510;40;20060;-63
2021/05/11 13:36:37;;;;;;;20.83;14.38;;;;;;;14.05;100.00;100827.06;3540527;40;19962;-62
2021/05/11 13:39:05;;;;;;;19.10;13.52;;;;;;;14.24;100.00;100831.41;3540089;40;20058;-67
2021/05/11 13:41:32;;;;;;;34.45;15.00;;;;;;;14.30;100.00;100831.59;3541210;40;20066;-62
2021/05/11 13:43:58;;;;;;;23.25;13.05;;;;;;;14.25;100.00;100825.84;3540789;40;20054;-62
2021/05/11 13:46:24;;;;;;;20.20;11.77;;;;;;;14.18;100.00;100820.22;3539771;40;20058;-62
2021/05/11 13:48:50;;;;;;;17.73;12.00;;;;;;;14.29;100.00;100810.94;3540425;40;20418;-61
2021/05/11 13:51:18;;;;;;;20.35;11.98;;;;;;;14.39;100.00;100818.13;3540904;40;20410;-62
2021/05/11 13:53:47;;;;;;;14.95;10.50;;;;;;;14.53;100.00;100812.94;3542044;40;20058;-61
2021/05/11 13:56:40;;;;;;;18.13;10.52;;;;;;;14.73;100.00;100803.72;3540479;40;20045;-62
2021/05/11 14:04:37;;;;;;;18.85;12.85;;;;;;;14.23;100.00;100816.19;3541098;40;20463;-62
2021/05/11 14:07:03;;;;;;;22.67;14.00;;;;;;;14.13;100.00;100813.56;3532188;40;20042;-62
2021/05/11 14:09:29;;;;;;;25.10;15.20;;;;;;;14.15;100.00;100819.69;3532659;40;20055;-66
2021/05/11 14:11:56;;;;;;;28.25;15.93;;;;;;;14.13;100.00;100814.44;3532705;40;20062;-62
2021/05/11 14:14:22;;;;;;;31.20;16.83;;;;;;;14.04;100.00;100814.53;3532874;40;20301;-62
2021/05/11 14:16:48;;;;;;;27.40;17.15;;;;;;;14.02;100.00;100815.53;3532917;40;20067;-62
2021/05/11 14:19:15;;;;;;;22.60;16.85;;;;;;;14.07;100.00;100808.81;3532719;40;20050;-66
2021/05/11 14:21:41;;;;;;;31.70;18.60;;;;;;;13.90;100.00;100808.72;3533917;40;20042;-62
2021/05/11 14:24:09;;;;;;;22.02;15.88;;;;;;;14.11;100.00;100815.59;3531845;40;20061;-63
2021/05/11 14:26:35;;;;;;;20.23;15.45;;;;;;;14.15;100.00;100796.16;3532720;40;20058;-61
2021/05/11 14:29:02;;;;;;;17.67;13.60;;;;;;;14.13;100.00;100792.78;3533355;40;20086;-62
2021/05/11 14:31:28;;;;;;;19.38;12.75;;;;;;;14.07;100.00;100779.03;3533277;40;20140;-62
2021/05/11 14:33:54;;;;;;;17.20;11.65;;;;;;;14.27;100.00;100777.78;3532765;40;20055;-62
2021/05/11 14:36:20;;;;;;;15.35;11.55;;;;;;;14.36;100.00;100794.91;3532285;40;20096;-64